sensor_id;sensor_type;location;lat;lon;timestamp;temperature;humidity
64032;DHT22;50278;47.796;11.968;2023-01-24T00:00:26;-0.39;118.99
64032;DHT22;50278;47.796;11.968;2023-01-24T00:02:52;-0.39;118.99
64032;DHT22;50278;47.796;11.968;2023-01-24T00:05:17;-0.39;118.99
64032;DHT22;50278;47.796;11.968;2023-01-24T00:07:43;-0.38;118.99
64032;DHT22;50278;47.796;11.968;2023-01-24T00:10:09;-0.37;118.99
64032;DHT22;50278;47.796;11.968;2023-01-24T00:12:34;-0.35;118.99
64032;DHT22;50278;47.796;11.968;2023-01-24T00:15:00;-0.26;118.99
64032;DHT22;50278;47.796;11.968;2023-01-24T00:17:25;-0.38;118.99
64032;DHT22;50278;47.796;11.968;2023-01-24T00:19:51;-0.39;118.99
64032;DHT22;50278;47.796;11.968;2023-01-24T00:22:16;-0.40;118.99
64032;DHT22;50278;47.796;11.968;2023-01-24T00:24:41;-0.39;118.99
64032;DHT22;50278;47.796;11.968;2023-01-24T00:27:07;-0.42;118.99
64032;DHT22;50278;47.796;11.968;2023-01-24T00:29:32;-0.42;118.99
64032;DHT22;50278;47.796;11.968;2023-01-24T00:31:58;-0.41;118.99
64032;DHT22;50278;47.796;11.968;2023-01-24T00:34:23;-0.40;118.99
64032;DHT22;50278;47.796;11.968;2023-01-24T00:36:49;-0.35;118.99
64032;DHT22;50278;47.796;11.968;2023-01-24T00:39:14;-0.34;118.99
64032;DHT22;50278;47.796;11.968;2023-01-24T00:41:39;-0.46;118.99
64032;DHT22;50278;47.796;11.968;2023-01-24T00:44:06;-0.32;118.99
64032;DHT22;50278;47.796;11.968;2023-01-24T00:46:31;-0.37;118.99
64032;DHT22;50278;47.796;11.968;2023-01-24T00:48:56;-0.36;118.99
64032;DHT22;50278;47.796;11.968;2023-01-24T00:51:22;-0.35;118.99
64032;DHT22;50278;47.796;11.968;2023-01-24T00:53:47;-0.39;118.99
64032;DHT22;50278;47.796;11.968;2023-01-24T00:56:13;-0.39;118.99
64032;DHT22;50278;47.796;11.968;2023-01-24T00:58:39;-0.41;118.99
64032;DHT22;50278;47.796;11.968;2023-01-24T01:01:06;-0.41;118.99
64032;DHT22;50278;47.796;11.968;2023-01-24T01:03:31;-0.39;118.99
64032;DHT22;50278;47.796;11.968;2023-01-24T01:06:04;-0.32;118.99
64032;DHT22;50278;47.796;11.968;2023-01-24T01:08:30;-0.39;118.99
64032;DHT22;50278;47.796;11.968;2023-01-24T01:10:56;-0.29;118.99
64032;DHT22;50278;47.796;11.968;2023-01-24T01:13:22;-0.32;118.99
64032;DHT22;50278;47.796;11.968;2023-01-24T01:15:47;-0.36;118.99
64032;DHT22;50278;47.796;11.968;2023-01-24T01:18:13;-0.36;118.99
64032;DHT22;50278;47.796;11.968;2023-01-24T01:20:38;-0.31;118.99
64032;DHT22;50278;47.796;11.968;2023-01-24T01:23:03;-0.36;118.99
64032;DHT22;50278;47.796;11.968;2023-01-24T01:25:29;-0.35;118.99
64032;DHT22;50278;47.796;11.968;2023-01-24T01:27:54;-0.35;118.99
64032;DHT22;50278;47.796;11.968;2023-01-24T01:30:20;-0.38;118.99
64032;DHT22;50278;47.796;11.968;2023-01-24T01:32:45;-0.39;118.99
64032;DHT22;50278;47.796;11.968;2023-01-24T01:35:11;-0.39;118.99
64032;DHT22;50278;47.796;11.968;2023-01-24T01:37:37;-0.45;118.99
64032;DHT22;50278;47.796;11.968;2023-01-24T01:40:02;-0.49;118.99
64032;DHT22;50278;47.796;11.968;2023-01-24T01:42:49;-0.50;118.99
64032;DHT22;50278;47.796;11.968;2023-01-24T01:47:59;-0.53;118.99
64032;DHT22;50278;47.796;11.968;2023-01-24T01:50:30;-0.54;118.99
64032;DHT22;50278;47.796;11.968;2023-01-24T01:52:56;-0.61;118.99
64032;DHT22;50278;47.796;11.968;2023-01-24T01:55:23;-0.57;118.99
64032;DHT22;50278;47.796;11.968;2023-01-24T01:57:50;-0.62;118.99
64032;DHT22;50278;47.796;11.968;2023-01-24T02:00:18;-0.58;118.99
64032;DHT22;50278;47.796;11.968;2023-01-24T02:02:48;-0.58;118.99
64032;DHT22;50278;47.796;11.968;2023-01-24T02:05:19;-0.59;118.99
64032;DHT22;50278;47.796;11.968;2023-01-24T02:07:53;-0.56;118.99
64032;DHT22;50278;47.796;11.968;2023-01-24T02:10:22;-0.56;118.99
64032;DHT22;50278;47.796;11.968;2023-01-24T02:12:49;-0.68;118.99
64032;DHT22;50278;47.796;11.968;2023-01-24T02:15:16;-0.69;118.99
64032;DHT22;50278;47.796;11.968;2023-01-24T02:18:00;-0.68;118.99
64032;DHT22;50278;47.796;11.968;2023-01-24T02:20:28;-0.68;118.99
64032;DHT22;50278;47.796;11.968;2023-01-24T02:23:04;-0.70;118.99
64032;DHT22;50278;47.796;11.968;2023-01-24T02:27:59;-0.72;118.99
64032;DHT22;50278;47.796;11.968;2023-01-24T02:30:26;-0.68;118.99
64032;DHT22;50278;47.796;11.968;2023-01-24T02:32:52;-0.62;118.99
64032;DHT22;50278;47.796;11.968;2023-01-24T02:35:28;-0.62;118.99
64032;DHT22;50278;47.796;11.968;2023-01-24T02:37:55;-0.66;118.99
64032;DHT22;50278;47.796;11.968;2023-01-24T02:40:21;-0.67;118.99
64032;DHT22;50278;47.796;11.968;2023-01-24T02:42:47;-0.69;118.99
64032;DHT22;50278;47.796;11.968;2023-01-24T02:45:14;-0.66;118.99
64032;DHT22;50278;47.796;11.968;2023-01-24T02:47:44;-0.69;118.99
64032;DHT22;50278;47.796;11.968;2023-01-24T02:50:10;-0.61;118.99
64032;DHT22;50278;47.796;11.968;2023-01-24T02:52:36;-0.66;118.99
64032;DHT22;50278;47.796;11.968;2023-01-24T02:55:20;-0.73;118.99
64032;DHT22;50278;47.796;11.968;2023-01-24T02:57:46;-0.75;118.99
64032;DHT22;50278;47.796;11.968;2023-01-24T03:00:35;-0.70;118.99
64032;DHT22;50278;47.796;11.968;2023-01-24T03:03:01;-0.72;118.99
64032;DHT22;50278;47.796;11.968;2023-01-24T03:05:29;-0.68;118.99
64032;DHT22;50278;47.796;11.968;2023-01-24T03:08:09;-0.74;118.99
64032;DHT22;50278;47.796;11.968;2023-01-24T03:10:34;-0.76;118.99
64032;DHT22;50278;47.796;11.968;2023-01-24T03:13:00;-0.70;118.99
64032;DHT22;50278;47.796;11.968;2023-01-24T03:15:45;-0.73;118.99
64032;DHT22;50278;47.796;11.968;2023-01-24T03:18:29;-0.73;118.99
64032;DHT22;50278;47.796;11.968;2023-01-24T03:21:13;-0.73;118.99
64032;DHT22;50278;47.796;11.968;2023-01-24T03:23:58;-0.80;118.99
64032;DHT22;50278;47.796;11.968;2023-01-24T03:26:42;-0.76;118.99
64032;DHT22;50278;47.796;11.968;2023-01-24T03:29:26;-0.82;118.99
64032;DHT22;50278;47.796;11.968;2023-01-24T03:32:10;-0.82;118.99
64032;DHT22;50278;47.796;11.968;2023-01-24T03:34:55;-0.82;118.99
64032;DHT22;50278;47.796;11.968;2023-01-24T03:37:25;-0.91;118.99
64032;DHT22;50278;47.796;11.968;2023-01-24T03:40:13;-0.88;118.99
64032;DHT22;50278;47.796;11.968;2023-01-24T03:42:39;-0.90;118.99
64032;DHT22;50278;47.796;11.968;2023-01-24T03:45:20;-0.87;118.99
64032;DHT22;50278;47.796;11.968;2023-01-24T03:47:49;-0.87;118.99
64032;DHT22;50278;47.796;11.968;2023-01-24T03:50:32;-0.97;118.99
64032;DHT22;50278;47.796;11.968;2023-01-24T03:53:19;-0.98;118.99
64032;DHT22;50278;47.796;11.968;2023-01-24T03:55:50;-0.88;118.99
64032;DHT22;50278;47.796;11.968;2023-01-24T03:58:16;-0.94;118.99
64032;DHT22;50278;47.796;11.968;2023-01-24T04:00:41;-0.90;118.99
64032;DHT22;50278;47.796;11.968;2023-01-24T04:03:23;-0.94;118.99
64032;DHT22;50278;47.796;11.968;2023-01-24T04:05:49;-0.94;118.99
64032;DHT22;50278;47.796;11.968;2023-01-24T04:08:15;-0.95;118.99
64032;DHT22;50278;47.796;11.968;2023-01-24T04:10:41;-0.97;118.99
64032;DHT22;50278;47.796;11.968;2023-01-24T04:13:10;-0.97;118.99
64032;DHT22;50278;47.796;11.968;2023-01-24T04:15:37;-0.96;118.99
64032;DHT22;50278;47.796;11.968;2023-01-24T04:18:32;-0.95;118.99
64032;DHT22;50278;47.796;11.968;2023-01-24T04:21:00;-0.96;118.99
64032;DHT22;50278;47.796;11.968;2023-01-24T04:23:28;-0.98;118.99
64032;DHT22;50278;47.796;11.968;2023-01-24T04:25:54;-0.99;118.99
64032;DHT22;50278;47.796;11.968;2023-01-24T04:28:23;-0.96;118.99
64032;DHT22;50278;47.796;11.968;2023-01-24T04:30:55;-1.01;118.99
64032;DHT22;50278;47.796;11.968;2023-01-24T04:33:34;-1.01;118.99
64032;DHT22;50278;47.796;11.968;2023-01-24T04:35:59;-0.98;118.99
64032;DHT22;50278;47.796;11.968;2023-01-24T04:38:25;-1.04;118.99
64032;DHT22;50278;47.796;11.968;2023-01-24T04:41:14;-1.04;118.99
64032;DHT22;50278;47.796;11.968;2023-01-24T04:43:41;-1.01;118.99
64032;DHT22;50278;47.796;11.968;2023-01-24T04:46:07;-0.98;118.99
64032;DHT22;50278;47.796;11.968;2023-01-24T04:48:58;-0.99;118.99
64032;DHT22;50278;47.796;11.968;2023-01-24T04:51:32;-0.97;118.99
64032;DHT22;50278;47.796;11.968;2023-01-24T04:54:01;-0.97;118.99
64032;DHT22;50278;47.796;11.968;2023-01-24T04:56:28;-1.03;118.99
64032;DHT22;50278;47.796;11.968;2023-01-24T04:58:56;-1.05;118.99
64032;DHT22;50278;47.796;11.968;2023-01-24T05:01:22;-1.04;118.99
64032;DHT22;50278;47.796;11.968;2023-01-24T05:04:00;-1.09;118.99
64032;DHT22;50278;47.796;11.968;2023-01-24T05:06:28;-1.06;118.99
64032;DHT22;50278;47.796;11.968;2023-01-24T05:08:55;-1.14;118.99
64032;DHT22;50278;47.796;11.968;2023-01-24T05:11:26;-1.10;118.99
64032;DHT22;50278;47.796;11.968;2023-01-24T05:13:55;-1.04;118.99
64032;DHT22;50278;47.796;11.968;2023-01-24T05:16:20;-1.00;118.99
64032;DHT22;50278;47.796;11.968;2023-01-24T05:18:46;-0.99;118.99
64032;DHT22;50278;47.796;11.968;2023-01-24T05:21:17;-0.94;118.99
64032;DHT22;50278;47.796;11.968;2023-01-24T05:24:09;-0.94;118.99
64032;DHT22;50278;47.796;11.968;2023-01-24T05:26:34;-0.97;118.99
64032;DHT22;50278;47.796;11.968;2023-01-24T05:29:00;-0.95;118.99
64032;DHT22;50278;47.796;11.968;2023-01-24T05:31:28;-0.99;118.99
64032;DHT22;50278;47.796;11.968;2023-01-24T05:33:58;-1.04;118.99
64032;DHT22;50278;47.796;11.968;2023-01-24T05:36:31;-0.99;118.99
64032;DHT22;50278;47.796;11.968;2023-01-24T05:38:57;-1.03;118.99
64032;DHT22;50278;47.796;11.968;2023-01-24T05:41:25;-1.13;118.99
64032;DHT22;50278;47.796;11.968;2023-01-24T05:43:52;-1.10;118.99
64032;DHT22;50278;47.796;11.968;2023-01-24T05:46:22;-1.13;118.99
64032;DHT22;50278;47.796;11.968;2023-01-24T05:49:08;-1.16;118.99
64032;DHT22;50278;47.796;11.968;2023-01-24T05:51:33;-1.10;118.99
64032;DHT22;50278;47.796;11.968;2023-01-24T05:53:59;-1.05;118.99
64032;DHT22;50278;47.796;11.968;2023-01-24T05:56:43;-1.03;118.99
64032;DHT22;50278;47.796;11.968;2023-01-24T05:59:11;-0.98;118.99
64032;DHT22;50278;47.796;11.968;2023-01-24T06:01:41;-0.98;118.99
64032;DHT22;50278;47.796;11.968;2023-01-24T06:04:09;-0.98;118.99
64032;DHT22;50278;47.796;11.968;2023-01-24T06:06:34;-0.90;118.99
64032;DHT22;50278;47.796;11.968;2023-01-24T06:09:00;-0.88;118.99
64032;DHT22;50278;47.796;11.968;2023-01-24T06:11:26;-0.81;118.99
64032;DHT22;50278;47.796;11.968;2023-01-24T06:14:02;-0.84;118.99
64032;DHT22;50278;47.796;11.968;2023-01-24T06:16:29;-0.84;118.99
64032;DHT22;50278;47.796;11.968;2023-01-24T06:18:55;-0.85;118.99
64032;DHT22;50278;47.796;11.968;2023-01-24T06:23:54;-0.87;118.99
64032;DHT22;50278;47.796;11.968;2023-01-24T06:26:20;-0.88;118.99
64032;DHT22;50278;47.796;11.968;2023-01-24T06:28:45;-0.83;118.99
64032;DHT22;50278;47.796;11.968;2023-01-24T06:31:19;-0.87;118.99
64032;DHT22;50278;47.796;11.968;2023-01-24T06:36:27;-0.84;118.99
64032;DHT22;50278;47.796;11.968;2023-01-24T06:38:55;-0.84;118.99
64032;DHT22;50278;47.796;11.968;2023-01-24T06:41:21;-0.80;118.99
64032;DHT22;50278;47.796;11.968;2023-01-24T06:43:47;-0.77;118.99
64032;DHT22;50278;47.796;11.968;2023-01-24T06:46:12;-0.73;118.99
64032;DHT22;50278;47.796;11.968;2023-01-24T06:48:38;-0.74;118.99
64032;DHT22;50278;47.796;11.968;2023-01-24T06:51:04;-0.80;118.99
64032;DHT22;50278;47.796;11.968;2023-01-24T06:53:31;-0.75;118.99
64032;DHT22;50278;47.796;11.968;2023-01-24T06:55:56;-0.82;118.99
64032;DHT22;50278;47.796;11.968;2023-01-24T06:58:22;-0.79;118.99
64032;DHT22;50278;47.796;11.968;2023-01-24T07:00:47;-0.84;118.99
64032;DHT22;50278;47.796;11.968;2023-01-24T07:03:13;-0.80;118.99
64032;DHT22;50278;47.796;11.968;2023-01-24T07:05:38;-0.86;118.99
64032;DHT22;50278;47.796;11.968;2023-01-24T07:08:04;-0.77;118.99
64032;DHT22;50278;47.796;11.968;2023-01-24T07:10:30;-0.79;118.99
64032;DHT22;50278;47.796;11.968;2023-01-24T07:12:55;-0.75;118.99
64032;DHT22;50278;47.796;11.968;2023-01-24T07:15:21;-0.79;118.99
64032;DHT22;50278;47.796;11.968;2023-01-24T07:17:46;-0.66;118.99
64032;DHT22;50278;47.796;11.968;2023-01-24T07:20:12;-0.60;118.99
64032;DHT22;50278;47.796;11.968;2023-01-24T07:22:38;-0.72;118.99
64032;DHT22;50278;47.796;11.968;2023-01-24T07:25:05;-0.64;118.99
64032;DHT22;50278;47.796;11.968;2023-01-24T07:27:31;-0.62;118.99
64032;DHT22;50278;47.796;11.968;2023-01-24T07:29:56;-0.60;118.99
64032;DHT22;50278;47.796;11.968;2023-01-24T07:32:22;-0.60;118.99
64032;DHT22;50278;47.796;11.968;2023-01-24T07:34:47;-0.53;118.99
64032;DHT22;50278;47.796;11.968;2023-01-24T07:37:12;-0.49;118.99
64032;DHT22;50278;47.796;11.968;2023-01-24T07:39:38;-0.44;118.99
64032;DHT22;50278;47.796;11.968;2023-01-24T07:42:03;-0.38;118.99
64032;DHT22;50278;47.796;11.968;2023-01-24T07:44:29;-0.40;118.99
64032;DHT22;50278;47.796;11.968;2023-01-24T07:46:54;-0.37;118.99
64032;DHT22;50278;47.796;11.968;2023-01-24T07:49:20;-0.34;118.99
64032;DHT22;50278;47.796;11.968;2023-01-24T07:51:45;-0.37;118.99
64032;DHT22;50278;47.796;11.968;2023-01-24T07:54:13;-0.42;118.99
64032;DHT22;50278;47.796;11.968;2023-01-24T07:56:39;-0.38;118.99
64032;DHT22;50278;47.796;11.968;2023-01-24T07:59:04;-0.31;118.99
64032;DHT22;50278;47.796;11.968;2023-01-24T08:01:30;-0.31;118.99
64032;DHT22;50278;47.796;11.968;2023-01-24T08:03:55;-0.21;118.99
64032;DHT22;50278;47.796;11.968;2023-01-24T08:06:21;-0.14;118.99
64032;DHT22;50278;47.796;11.968;2023-01-24T08:08:47;-0.20;118.99
64032;DHT22;50278;47.796;11.968;2023-01-24T08:11:12;-0.03;118.99
64032;DHT22;50278;47.796;11.968;2023-01-24T08:13:41;-0.10;118.99
64032;DHT22;50278;47.796;11.968;2023-01-24T08:16:06;-0.16;118.99
64032;DHT22;50278;47.796;11.968;2023-01-24T08:18:32;-0.00;118.99
64032;DHT22;50278;47.796;11.968;2023-01-24T08:20:58;0.01;118.99
64032;DHT22;50278;47.796;11.968;2023-01-24T08:23:23;0.12;118.99
64032;DHT22;50278;47.796;11.968;2023-01-24T08:25:48;0.21;118.99
64032;DHT22;50278;47.796;11.968;2023-01-24T08:28:14;0.24;118.99
64032;DHT22;50278;47.796;11.968;2023-01-24T08:30:39;0.37;118.99
64032;DHT22;50278;47.796;11.968;2023-01-24T08:33:05;0.46;118.99
64032;DHT22;50278;47.796;11.968;2023-01-24T08:35:31;0.43;118.99
64032;DHT22;50278;47.796;11.968;2023-01-24T08:37:57;0.47;118.99
64032;DHT22;50278;47.796;11.968;2023-01-24T08:40:22;0.48;118.99
64032;DHT22;50278;47.796;11.968;2023-01-24T08:42:48;0.49;118.99
64032;DHT22;50278;47.796;11.968;2023-01-24T08:45:13;0.49;118.99
64032;DHT22;50278;47.796;11.968;2023-01-24T08:47:39;0.55;118.99
64032;DHT22;50278;47.796;11.968;2023-01-24T08:50:04;0.63;118.99
64032;DHT22;50278;47.796;11.968;2023-01-24T08:52:30;0.83;118.99
64032;DHT22;50278;47.796;11.968;2023-01-24T08:54:55;0.98;118.99
64032;DHT22;50278;47.796;11.968;2023-01-24T08:57:20;0.87;118.99
64032;DHT22;50278;47.796;11.968;2023-01-24T08:59:46;0.92;116.43
64032;DHT22;50278;47.796;11.968;2023-01-24T09:02:15;0.86;117.57
64032;DHT22;50278;47.796;11.968;2023-01-24T09:04:41;0.87;118.99
64032;DHT22;50278;47.796;11.968;2023-01-24T09:07:08;0.98;118.99
64032;DHT22;50278;47.796;11.968;2023-01-24T09:09:33;0.88;118.99
64032;DHT22;50278;47.796;11.968;2023-01-24T09:11:58;0.89;118.99
64032;DHT22;50278;47.796;11.968;2023-01-24T09:14:24;1.01;113.70
64032;DHT22;50278;47.796;11.968;2023-01-24T09:16:49;0.95;116.66
64032;DHT22;50278;47.796;11.968;2023-01-24T09:19:15;1.04;117.92
64032;DHT22;50278;47.796;11.968;2023-01-24T09:21:40;0.76;118.38
64032;DHT22;50278;47.796;11.968;2023-01-24T09:24:06;1.21;114.87
64032;DHT22;50278;47.796;11.968;2023-01-24T09:26:31;1.12;113.91
64032;DHT22;50278;47.796;11.968;2023-01-24T09:28:57;1.32;112.89
64032;DHT22;50278;47.796;11.968;2023-01-24T09:31:22;1.32;106.95
64032;DHT22;50278;47.796;11.968;2023-01-24T09:33:48;1.46;108.84
64032;DHT22;50278;47.796;11.968;2023-01-24T09:36:13;1.37;109.10
64032;DHT22;50278;47.796;11.968;2023-01-24T09:38:38;1.39;107.00
64032;DHT22;50278;47.796;11.968;2023-01-24T09:41:18;1.52;109.43
64032;DHT22;50278;47.796;11.968;2023-01-24T09:43:51;1.80;102.34
64032;DHT22;50278;47.796;11.968;2023-01-24T09:48:52;2.16;98.62
64032;DHT22;50278;47.796;11.968;2023-01-24T09:51:21;2.17;102.04
64032;DHT22;50278;47.796;11.968;2023-01-24T09:53:50;1.95;101.38
64032;DHT22;50278;47.796;11.968;2023-01-24T09:56:21;2.30;95.33
64032;DHT22;50278;47.796;11.968;2023-01-24T09:58:54;2.17;97.23
64032;DHT22;50278;47.796;11.968;2023-01-24T10:01:21;2.20;100.03
64032;DHT22;50278;47.796;11.968;2023-01-24T10:03:47;2.16;97.20
64032;DHT22;50278;47.796;11.968;2023-01-24T10:06:16;2.46;93.55
64032;DHT22;50278;47.796;11.968;2023-01-24T10:08:48;2.13;94.94
64032;DHT22;50278;47.796;11.968;2023-01-24T10:11:41;1.97;92.08
64032;DHT22;50278;47.796;11.968;2023-01-24T10:16:42;1.75;95.55
64032;DHT22;50278;47.796;11.968;2023-01-24T10:21:47;2.06;89.80
64032;DHT22;50278;47.796;11.968;2023-01-24T10:24:16;1.77;92.50
64032;DHT22;50278;47.796;11.968;2023-01-24T10:26:44;1.87;92.70
64032;DHT22;50278;47.796;11.968;2023-01-24T10:31:38;2.24;88.15
64032;DHT22;50278;47.796;11.968;2023-01-24T10:34:09;2.51;89.01
64032;DHT22;50278;47.796;11.968;2023-01-24T10:36:40;2.98;84.84
64032;DHT22;50278;47.796;11.968;2023-01-24T10:39:11;3.11;82.70
64032;DHT22;50278;47.796;11.968;2023-01-24T10:41:37;3.72;77.37
64032;DHT22;50278;47.796;11.968;2023-01-24T10:44:15;3.32;81.01
64032;DHT22;50278;47.796;11.968;2023-01-24T10:49:16;3.75;72.40
64032;DHT22;50278;47.796;11.968;2023-01-24T10:51:42;3.47;74.05
64032;DHT22;50278;47.796;11.968;2023-01-24T10:54:17;3.43;73.66
64032;DHT22;50278;47.796;11.968;2023-01-24T10:56:44;3.60;73.19
64032;DHT22;50278;47.796;11.968;2023-01-24T10:59:10;3.88;69.52
64032;DHT22;50278;47.796;11.968;2023-01-24T11:01:45;4.12;69.97
64032;DHT22;50278;47.796;11.968;2023-01-24T11:06:38;4.15;67.33
64032;DHT22;50278;47.796;11.968;2023-01-24T11:09:08;4.41;66.84
64032;DHT22;50278;47.796;11.968;2023-01-24T11:11:34;4.29;66.73
64032;DHT22;50278;47.796;11.968;2023-01-24T11:14:04;4.18;66.61
64032;DHT22;50278;47.796;11.968;2023-01-24T11:16:32;4.03;64.03
64032;DHT22;50278;47.796;11.968;2023-01-24T11:18:59;4.39;64.40
64032;DHT22;50278;47.796;11.968;2023-01-24T11:21:25;3.52;64.53
64032;DHT22;50278;47.796;11.968;2023-01-24T11:26:30;3.80;65.33
64032;DHT22;50278;47.796;11.968;2023-01-24T11:29:15;3.85;63.82
64032;DHT22;50278;47.796;11.968;2023-01-24T11:31:47;4.29;62.92
64032;DHT22;50278;47.796;11.968;2023-01-24T11:39:11;4.01;61.89
64032;DHT22;50278;47.796;11.968;2023-01-24T11:42:06;4.41;60.32
64032;DHT22;50278;47.796;11.968;2023-01-24T11:44:33;4.74;58.71
64032;DHT22;50278;47.796;11.968;2023-01-24T11:52:41;4.93;56.01
64032;DHT22;50278;47.796;11.968;2023-01-24T12:03:09;5.48;53.17
64032;DHT22;50278;47.796;11.968;2023-01-24T12:05:50;5.12;51.58
64032;DHT22;50278;47.796;11.968;2023-01-24T12:09:02;5.43;49.55
64032;DHT22;50278;47.796;11.968;2023-01-24T12:11:29;4.34;50.19
64032;DHT22;50278;47.796;11.968;2023-01-24T12:21:48;4.78;48.75
64032;DHT22;50278;47.796;11.968;2023-01-24T12:26:49;3.76;48.86
64032;DHT22;50278;47.796;11.968;2023-01-24T12:29:17;3.71;49.36
64032;DHT22;50278;47.796;11.968;2023-01-24T12:31:47;3.87;51.28
64032;DHT22;50278;47.796;11.968;2023-01-24T12:34:49;3.67;50.15
64032;DHT22;50278;47.796;11.968;2023-01-24T12:37:10;3.58;51.73
64032;DHT22;50278;47.796;11.968;2023-01-24T12:39:41;3.78;49.86
64032;DHT22;50278;47.796;11.968;2023-01-24T12:42:10;3.90;50.35
64032;DHT22;50278;47.796;11.968;2023-01-24T12:44:40;3.56;51.27
64032;DHT22;50278;47.796;11.968;2023-01-24T12:49:59;3.53;51.11
64032;DHT22;50278;47.796;11.968;2023-01-24T12:55:02;3.58;52.23
64032;DHT22;50278;47.796;11.968;2023-01-24T13:00:01;3.53;54.13
64032;DHT22;50278;47.796;11.968;2023-01-24T13:12:57;3.69;51.81
64032;DHT22;50278;47.796;11.968;2023-01-24T13:15:25;3.50;51.38
64032;DHT22;50278;47.796;11.968;2023-01-24T13:33:23;3.32;50.32
64032;DHT22;50278;47.796;11.968;2023-01-24T13:35:52;3.42;50.21
64032;DHT22;50278;47.796;11.968;2023-01-24T13:38:21;3.14;51.15
64032;DHT22;50278;47.796;11.968;2023-01-24T13:46:03;2.88;51.52
64032;DHT22;50278;47.796;11.968;2023-01-24T13:56:25;3.03;50.11
64032;DHT22;50278;47.796;11.968;2023-01-24T13:58:51;2.97;50.95
64032;DHT22;50278;47.796;11.968;2023-01-24T14:01:17;3.08;51.21
64032;DHT22;50278;47.796;11.968;2023-01-24T14:03:54;2.93;51.59
64032;DHT22;50278;47.796;11.968;2023-01-24T14:06:20;3.11;51.08
64032;DHT22;50278;47.796;11.968;2023-01-24T14:09:12;3.16;50.26
64032;DHT22;50278;47.796;11.968;2023-01-24T14:11:35;3.02;52.18
64032;DHT22;50278;47.796;11.968;2023-01-24T14:14:02;2.99;52.14
64032;DHT22;50278;47.796;11.968;2023-01-24T14:19:35;3.05;54.95
64032;DHT22;50278;47.796;11.968;2023-01-24T14:22:02;3.01;52.92
64032;DHT22;50278;47.796;11.968;2023-01-24T14:24:35;2.95;54.75
64032;DHT22;50278;47.796;11.968;2023-01-24T14:27:18;2.84;52.95
64032;DHT22;50278;47.796;11.968;2023-01-24T14:29:46;2.78;51.72
64032;DHT22;50278;47.796;11.968;2023-01-24T14:32:18;2.83;53.20
64032;DHT22;50278;47.796;11.968;2023-01-24T14:34:47;2.75;54.33
64032;DHT22;50278;47.796;11.968;2023-01-24T14:37:16;2.83;54.34
64032;DHT22;50278;47.796;11.968;2023-01-24T14:39:42;2.64;57.36
64032;DHT22;50278;47.796;11.968;2023-01-24T14:42:15;2.61;57.89
64032;DHT22;50278;47.796;11.968;2023-01-24T14:44:49;2.66;55.13
64032;DHT22;50278;47.796;11.968;2023-01-24T14:49:48;2.47;58.55
64032;DHT22;50278;47.796;11.968;2023-01-24T14:52:16;2.47;57.88
64032;DHT22;50278;47.796;11.968;2023-01-24T14:54:45;2.25;58.36
64032;DHT22;50278;47.796;11.968;2023-01-24T14:59:54;2.19;61.04
64032;DHT22;50278;47.796;11.968;2023-01-24T15:02:22;2.26;62.71
64032;DHT22;50278;47.796;11.968;2023-01-24T15:04:48;2.35;63.04
64032;DHT22;50278;47.796;11.968;2023-01-24T15:07:15;2.13;61.49
64032;DHT22;50278;47.796;11.968;2023-01-24T15:09:41;2.26;62.90
64032;DHT22;50278;47.796;11.968;2023-01-24T15:12:40;2.25;65.37
64032;DHT22;50278;47.796;11.968;2023-01-24T15:14:59;1.99;70.35
64032;DHT22;50278;47.796;11.968;2023-01-24T15:17:27;1.82;72.98
64032;DHT22;50278;47.796;11.968;2023-01-24T15:19:54;1.77;74.01
64032;DHT22;50278;47.796;11.968;2023-01-24T15:22:24;1.75;75.70
64032;DHT22;50278;47.796;11.968;2023-01-24T15:24:50;1.75;76.12
64032;DHT22;50278;47.796;11.968;2023-01-24T15:32:39;1.66;85.35
64032;DHT22;50278;47.796;11.968;2023-01-24T15:37:37;1.56;88.41
64032;DHT22;50278;47.796;11.968;2023-01-24T15:40:02;1.48;89.66
64032;DHT22;50278;47.796;11.968;2023-01-24T15:42:28;1.55;94.46
64032;DHT22;50278;47.796;11.968;2023-01-24T15:45:15;1.50;94.46
64032;DHT22;50278;47.796;11.968;2023-01-24T15:47:42;1.48;92.40
64032;DHT22;50278;47.796;11.968;2023-01-24T15:50:28;1.40;87.31
64032;DHT22;50278;47.796;11.968;2023-01-24T15:53:26;1.32;88.06
64032;DHT22;50278;47.796;11.968;2023-01-24T15:55:55;1.28;90.98
64032;DHT22;50278;47.796;11.968;2023-01-24T15:58:24;1.29;90.47
64032;DHT22;50278;47.796;11.968;2023-01-24T16:00:50;1.27;93.04
64032;DHT22;50278;47.796;11.968;2023-01-24T16:03:16;1.22;98.19
64032;DHT22;50278;47.796;11.968;2023-01-24T16:05:42;1.17;98.64
64032;DHT22;50278;47.796;11.968;2023-01-24T16:08:07;1.16;101.83
64032;DHT22;50278;47.796;11.968;2023-01-24T16:10:33;1.16;108.94
64032;DHT22;50278;47.796;11.968;2023-01-24T16:12:58;1.05;106.07
64032;DHT22;50278;47.796;11.968;2023-01-24T16:15:24;1.07;108.26
64032;DHT22;50278;47.796;11.968;2023-01-24T16:17:49;1.09;105.99
64032;DHT22;50278;47.796;11.968;2023-01-24T16:20:16;1.08;109.55
64032;DHT22;50278;47.796;11.968;2023-01-24T16:22:41;1.09;109.82
64032;DHT22;50278;47.796;11.968;2023-01-24T16:25:09;1.09;109.55
64032;DHT22;50278;47.796;11.968;2023-01-24T16:27:36;1.08;113.64
64032;DHT22;50278;47.796;11.968;2023-01-24T16:30:03;1.09;113.00
64032;DHT22;50278;47.796;11.968;2023-01-24T16:32:29;1.05;107.65
64032;DHT22;50278;47.796;11.968;2023-01-24T16:34:54;1.03;109.98
64032;DHT22;50278;47.796;11.968;2023-01-24T16:37:20;1.19;118.99
64032;DHT22;50278;47.796;11.968;2023-01-24T16:39:45;1.17;118.99
64032;DHT22;50278;47.796;11.968;2023-01-24T16:42:14;1.10;115.63
64032;DHT22;50278;47.796;11.968;2023-01-24T16:44:40;1.01;118.99
64032;DHT22;50278;47.796;11.968;2023-01-24T16:47:05;0.96;118.99
64032;DHT22;50278;47.796;11.968;2023-01-24T16:49:31;1.01;118.99
64032;DHT22;50278;47.796;11.968;2023-01-24T16:51:56;1.05;118.99
64032;DHT22;50278;47.796;11.968;2023-01-24T16:54:22;1.36;118.99
64032;DHT22;50278;47.796;11.968;2023-01-24T16:56:48;1.04;118.99
64032;DHT22;50278;47.796;11.968;2023-01-24T16:59:14;1.09;118.99
64032;DHT22;50278;47.796;11.968;2023-01-24T17:01:39;1.10;118.99
64032;DHT22;50278;47.796;11.968;2023-01-24T17:04:05;1.06;118.99
64032;DHT22;50278;47.796;11.968;2023-01-24T17:06:30;1.08;118.99
64032;DHT22;50278;47.796;11.968;2023-01-24T17:08:55;1.10;118.99
64032;DHT22;50278;47.796;11.968;2023-01-24T17:11:21;1.16;118.99
64032;DHT22;50278;47.796;11.968;2023-01-24T17:13:48;1.09;118.99
64032;DHT22;50278;47.796;11.968;2023-01-24T17:16:13;1.17;118.99
64032;DHT22;50278;47.796;11.968;2023-01-24T17:18:39;1.29;118.99
64032;DHT22;50278;47.796;11.968;2023-01-24T17:21:06;1.37;118.99
64032;DHT22;50278;47.796;11.968;2023-01-24T17:23:32;1.45;118.99